createdAt,value
2022-12-03T00:00:48.450Z,32.90
2022-12-03T00:03:15.577Z,30.60
2022-12-03T00:05:48.906Z,33.22
2022-12-03T00:08:16.600Z,32.45
2022-12-03T00:10:45.088Z,33.70
2022-12-03T00:13:13.295Z,32.78
2022-12-03T00:15:40.301Z,31.90
2022-12-03T00:18:09.720Z,31.27
2022-12-03T00:20:36.677Z,30.73
2022-12-03T00:23:05.252Z,31.77
2022-12-03T00:25:33.284Z,31.67
2022-12-03T00:28:00.712Z,31.92
2022-12-03T00:30:29.248Z,30.85
2022-12-03T00:32:56.686Z,32.15
2022-12-03T00:35:24.091Z,31.85
2022-12-03T00:37:51.138Z,32.22
2022-12-03T00:40:18.466Z,30.52
2022-12-03T00:42:45.647Z,31.02
2022-12-03T00:45:13.075Z,31.27
2022-12-03T00:47:41.403Z,31.17
2022-12-03T00:50:10.259Z,31.05
2022-12-03T00:52:38.380Z,29.90
2022-12-03T00:55:06.127Z,31.98
2022-12-03T00:57:33.244Z,31.92
2022-12-03T01:00:07.431Z,31.63
2022-12-03T01:02:34.815Z,31.77
2022-12-03T01:05:06.282Z,31.52
2022-12-03T01:07:33.497Z,31.85
2022-12-03T01:10:00.843Z,32.28
2022-12-03T01:12:28.267Z,32.97
2022-12-03T01:14:55.952Z,32.55
2022-12-03T01:17:23.126Z,30.48
2022-12-03T01:19:52.776Z,33.88
2022-12-03T01:22:20.089Z,31.92
2022-12-03T01:24:54.101Z,33.13
2022-12-03T01:27:21.673Z,32.65
2022-12-03T01:29:48.640Z,33.03
2022-12-03T01:32:19.784Z,33.83
2022-12-03T01:34:49.996Z,32.25
2022-12-03T01:37:17.881Z,31.85
2022-12-03T01:39:45.203Z,32.53
2022-12-03T01:42:27.462Z,34.55
2022-12-03T01:44:57.851Z,33.67
2022-12-03T01:47:36.110Z,33.97
2022-12-03T01:50:15.815Z,34.53
2022-12-03T01:52:43.009Z,34.30
2022-12-03T01:55:20.858Z,33.50
2022-12-03T01:57:54.195Z,34.38
2022-12-03T02:02:57.421Z,35.08
2022-12-03T02:05:27.653Z,34.10
2022-12-03T02:07:57.460Z,32.65
2022-12-03T02:10:36.339Z,31.92
2022-12-03T02:13:11.354Z,32.92
2022-12-03T02:15:40.229Z,33.22
2022-12-03T02:18:13.319Z,32.72
2022-12-03T02:21:12.141Z,34.92
2022-12-03T02:24:08.057Z,33.03
2022-12-03T02:26:36.314Z,34.17
2022-12-03T02:29:03.796Z,32.60
2022-12-03T02:31:32.306Z,33.40
2022-12-03T02:33:59.773Z,33.15
2022-12-03T02:36:28.229Z,33.17
2022-12-03T02:39:04.485Z,33.78
2022-12-03T02:41:50.354Z,34.08
2022-12-03T02:44:17.696Z,33.67
2022-12-03T02:46:48.706Z,32.40
2022-12-03T02:49:16.264Z,34.55
2022-12-03T02:51:43.644Z,34.40
2022-12-03T02:54:11.216Z,33.83
2022-12-03T02:56:40.689Z,36.38
2022-12-03T02:59:10.409Z,35.08
2022-12-03T03:01:38.575Z,35.72
2022-12-03T03:04:07.117Z,35.00
2022-12-03T03:06:34.783Z,34.55
2022-12-03T03:09:03.227Z,34.33
2022-12-03T03:11:30.629Z,34.28
2022-12-03T03:13:57.794Z,34.35
2022-12-03T03:16:24.805Z,34.72
2022-12-03T03:18:53.316Z,35.33
2022-12-03T03:21:22.817Z,35.33
2022-12-03T03:23:50.248Z,35.40
2022-12-03T03:26:17.936Z,34.42
2022-12-03T03:28:50.345Z,35.20
2022-12-03T03:31:23.068Z,33.47
2022-12-03T03:33:53.393Z,32.50
2022-12-03T03:36:23.350Z,34.80
2022-12-03T03:38:53.345Z,35.72
2022-12-03T03:41:21.892Z,34.10
2022-12-03T03:43:50.459Z,34.55
2022-12-03T03:46:19.326Z,33.83
2022-12-03T03:48:48.847Z,34.25
2022-12-03T03:51:18.862Z,35.72
2022-12-03T03:53:49.988Z,35.08
2022-12-03T03:56:21.776Z,35.28
2022-12-03T03:58:50.969Z,34.42
2022-12-03T04:01:18.664Z,35.70
2022-12-03T04:03:45.667Z,36.17
2022-12-03T04:06:12.912Z,34.97
2022-12-03T04:08:40.309Z,35.92
2022-12-03T04:11:26.252Z,35.70
2022-12-03T04:13:53.589Z,35.60
2022-12-03T04:16:21.633Z,35.05
2022-12-03T04:18:51.137Z,36.13
2022-12-03T04:21:42.392Z,35.05
2022-12-03T04:24:11.753Z,37.25
2022-12-03T04:26:57.472Z,37.55
2022-12-03T04:29:24.770Z,36.22
2022-12-03T04:32:11.410Z,34.00
2022-12-03T04:34:57.622Z,34.20
2022-12-03T04:37:25.757Z,34.05
2022-12-03T04:39:52.774Z,35.10
2022-12-03T04:42:20.167Z,36.70
2022-12-03T04:44:47.615Z,35.30
2022-12-03T04:47:21.026Z,35.00
2022-12-03T04:49:51.939Z,35.83
2022-12-03T04:52:25.330Z,37.20
2022-12-03T04:57:20.215Z,36.38
2022-12-03T04:59:47.147Z,36.35
2022-12-03T05:02:16.187Z,32.55
2022-12-03T05:04:43.582Z,37.13
2022-12-03T05:07:12.670Z,36.50
2022-12-03T05:09:40.129Z,38.60
2022-12-03T05:12:07.691Z,38.90
2022-12-03T05:14:35.215Z,40.63
2022-12-03T05:17:02.414Z,40.22
2022-12-03T05:19:48.582Z,39.05
2022-12-03T05:22:16.772Z,37.75
2022-12-03T05:24:45.302Z,38.17
2022-12-03T05:27:12.753Z,38.83
2022-12-03T05:29:41.056Z,38.67
2022-12-03T05:32:10.197Z,36.97
2022-12-03T05:34:37.217Z,39.25
2022-12-03T05:37:05.336Z,38.08
2022-12-03T05:39:34.885Z,35.42
2022-12-03T05:42:20.462Z,37.80
2022-12-03T05:44:49.579Z,38.42
2022-12-03T05:47:16.680Z,39.33
2022-12-03T05:49:44.176Z,38.25
2022-12-03T05:52:11.468Z,37.90
2022-12-03T05:54:39.217Z,37.85
2022-12-03T05:57:08.366Z,38.17
2022-12-03T05:59:35.338Z,37.58
2022-12-03T06:02:04.979Z,37.47
2022-12-03T06:04:32.345Z,39.85
2022-12-03T06:06:59.425Z,38.28
2022-12-03T06:09:26.771Z,42.17
2022-12-03T06:11:54.473Z,43.03
2022-12-03T06:14:23.752Z,43.00
2022-12-03T06:16:51.216Z,43.10
2022-12-03T06:19:18.657Z,43.60
2022-12-03T06:21:46.177Z,43.63
2022-12-03T06:24:13.590Z,48.20
2022-12-03T06:26:40.736Z,50.60
2022-12-03T06:29:09.053Z,53.72
2022-12-03T06:31:36.156Z,47.72
2022-12-03T06:34:03.564Z,46.83
2022-12-03T06:36:31.089Z,44.85
2022-12-03T06:38:58.526Z,45.15
2022-12-03T06:41:25.916Z,45.97
2022-12-03T06:43:53.081Z,43.22
2022-12-03T06:46:20.352Z,43.53
2022-12-03T06:48:47.937Z,44.60
2022-12-03T06:51:17.394Z,43.95
2022-12-03T06:53:44.333Z,43.90
2022-12-03T06:56:11.751Z,42.25
2022-12-03T06:58:39.169Z,42.17
2022-12-03T07:01:06.593Z,44.53
2022-12-03T07:03:33.585Z,48.10
2022-12-03T07:06:01.341Z,53.35
2022-12-03T07:08:46.874Z,52.90
2022-12-03T07:23:58.537Z,44.63
2022-12-03T07:26:26.078Z,44.13
2022-12-03T07:28:54.381Z,44.38
2022-12-03T07:31:21.849Z,43.35
2022-12-03T07:33:49.218Z,43.97
2022-12-03T07:36:17.417Z,48.17
2022-12-03T07:38:45.085Z,48.22
2022-12-03T07:41:12.171Z,46.20
2022-12-03T07:43:40.346Z,48.65
2022-12-03T07:46:08.743Z,48.30
2022-12-03T07:48:36.230Z,48.28
2022-12-03T07:51:03.915Z,49.17
2022-12-03T07:53:31.775Z,48.83
2022-12-03T07:55:59.137Z,51.08
2022-12-03T07:58:33.267Z,51.28
2022-12-03T08:01:01.868Z,48.42
2022-12-03T08:03:28.819Z,49.67
2022-12-03T08:05:57.222Z,44.67
2022-12-03T08:08:24.781Z,51.85
2022-12-03T08:10:52.158Z,56.95
2022-12-03T08:13:19.685Z,57.45
2022-12-03T08:15:47.561Z,57.67
2022-12-03T08:18:20.932Z,56.70
2022-12-03T08:23:26.770Z,56.35
2022-12-03T08:25:54.804Z,58.92
2022-12-03T08:28:25.931Z,57.83
2022-12-03T08:31:32.703Z,51.35
2022-12-03T08:34:22.326Z,56.85
2022-12-03T08:37:06.713Z,51.85
2022-12-03T08:39:44.765Z,51.83
2022-12-03T08:42:46.744Z,57.00
2022-12-03T08:45:40.810Z,55.03
2022-12-03T08:48:34.208Z,53.97
2022-12-03T08:51:25.388Z,53.65
2022-12-03T08:54:13.038Z,53.80
2022-12-03T08:56:56.447Z,44.80
2022-12-03T08:59:26.012Z,56.40
2022-12-03T09:02:00.042Z,58.25
2022-12-03T09:04:32.384Z,57.38
2022-12-03T09:06:59.759Z,57.60
2022-12-03T09:09:27.196Z,59.00
2022-12-03T09:11:56.118Z,61.67
2022-12-03T09:14:24.051Z,58.33
2022-12-03T09:16:56.104Z,58.42
2022-12-03T09:19:25.570Z,61.22
2022-12-03T09:21:54.341Z,61.25
2022-12-03T09:24:21.606Z,60.40
2022-12-03T09:26:49.580Z,60.97
2022-12-03T09:29:16.971Z,61.08
2022-12-03T09:31:44.400Z,61.35
2022-12-03T09:34:11.849Z,57.70
2022-12-03T09:36:39.340Z,59.10
2022-12-03T09:39:06.838Z,59.90
2022-12-03T09:41:34.326Z,59.50
2022-12-03T09:44:04.431Z,58.20
2022-12-03T09:46:37.902Z,58.30
2022-12-03T09:49:13.946Z,55.87
2022-12-03T09:51:45.905Z,57.35
2022-12-03T09:54:23.077Z,59.38
2022-12-03T09:56:51.920Z,59.88
2022-12-03T09:59:23.126Z,60.78
2022-12-03T10:01:53.189Z,59.47
2022-12-03T10:04:20.931Z,58.78
2022-12-03T10:06:48.507Z,56.40
2022-12-03T10:09:22.756Z,57.00
2022-12-03T10:11:50.893Z,46.20
2022-12-03T10:14:20.341Z,55.47
2022-12-03T10:16:48.059Z,58.30
2022-12-03T10:19:27.993Z,53.85
2022-12-03T10:21:56.514Z,53.90
2022-12-03T10:24:29.083Z,56.53
2022-12-03T10:26:59.594Z,57.25
2022-12-03T10:29:34.211Z,57.05
2022-12-03T10:32:13.055Z,58.35
2022-12-03T10:34:42.513Z,54.92
2022-12-03T10:37:18.631Z,59.20
2022-12-03T10:40:11.001Z,54.33
2022-12-03T10:42:41.160Z,55.83
2022-12-03T10:45:15.108Z,55.90
2022-12-03T10:48:03.594Z,49.90
2022-12-03T10:50:49.564Z,59.88
2022-12-03T10:53:19.371Z,55.60
2022-12-03T10:55:48.445Z,58.38
2022-12-03T10:58:22.325Z,56.60
2022-12-03T11:00:52.059Z,57.22
2022-12-03T11:03:22.625Z,56.53
2022-12-03T11:05:51.147Z,57.65
2022-12-03T11:08:21.162Z,59.95
2022-12-03T11:11:07.560Z,60.28
2022-12-03T11:13:50.035Z,62.17
2022-12-03T11:16:40.460Z,62.38
2022-12-03T11:19:13.138Z,65.57
2022-12-03T11:22:05.516Z,66.97
2022-12-03T11:24:35.910Z,65.20
2022-12-03T11:27:09.272Z,62.10
2022-12-03T11:32:39.174Z,61.80
2022-12-03T11:35:28.529Z,59.67
2022-12-03T11:38:15.736Z,60.42
2022-12-03T11:41:08.514Z,62.63
2022-12-03T11:43:56.905Z,63.17
2022-12-03T11:46:38.142Z,62.40
2022-12-03T11:49:21.167Z,62.70
2022-12-03T11:51:58.946Z,64.25
2022-12-03T11:54:26.544Z,61.60
2022-12-03T11:56:56.367Z,45.75
2022-12-03T11:59:24.562Z,71.07
2022-12-03T12:01:51.511Z,70.93
2022-12-03T12:04:43.179Z,67.25
2022-12-03T12:07:12.090Z,54.60
2022-12-03T12:09:54.311Z,74.63
2022-12-03T12:12:38.589Z,63.90
2022-12-03T12:15:53.880Z,62.65
2022-12-03T12:18:39.647Z,70.20
2022-12-03T12:21:48.031Z,72.95
2022-12-03T12:24:54.025Z,74.35
2022-12-03T12:27:35.994Z,71.93
2022-12-03T12:30:13.996Z,74.95
2022-12-03T12:32:52.253Z,59.30
2022-12-03T12:35:24.546Z,73.70
2022-12-03T12:38:07.784Z,69.85
2022-12-03T12:40:37.726Z,71.70
2022-12-03T12:43:29.885Z,74.47
2022-12-03T12:46:38.633Z,70.43
2022-12-03T12:48:59.342Z,68.93
2022-12-03T12:51:43.776Z,66.35
2022-12-03T12:54:13.431Z,68.45
2022-12-03T12:56:44.485Z,70.28
2022-12-03T12:59:14.602Z,68.18
2022-12-03T13:01:44.393Z,71.45
2022-12-03T13:04:13.975Z,71.15
2022-12-03T13:06:41.575Z,69.00
2022-12-03T13:09:20.880Z,66.95
2022-12-03T13:12:01.539Z,73.95
2022-12-03T13:14:35.366Z,69.53
2022-12-03T13:17:14.294Z,68.75
2022-12-03T13:19:48.264Z,73.05
2022-12-03T13:22:25.791Z,71.57
2022-12-03T13:24:56.212Z,72.25
2022-12-03T13:27:29.857Z,71.15
2022-12-03T13:30:09.541Z,77.60
2022-12-03T13:32:42.698Z,75.18
2022-12-03T13:35:32.054Z,72.78
2022-12-03T13:37:59.625Z,71.95
2022-12-03T13:40:35.297Z,75.00
2022-12-03T13:43:20.329Z,72.15
2022-12-03T13:45:50.558Z,71.38
2022-12-03T13:48:45.521Z,67.95
2022-12-03T13:51:26.252Z,71.88
2022-12-03T13:53:54.587Z,73.38
2022-12-03T13:56:32.560Z,65.90
2022-12-03T13:59:01.889Z,62.65
2022-12-03T14:01:30.648Z,70.47
2022-12-03T14:03:57.728Z,72.00
2022-12-03T14:06:25.942Z,72.07
2022-12-03T14:08:53.218Z,71.97
2022-12-03T14:11:39.108Z,69.75
2022-12-03T14:14:06.515Z,68.35
2022-12-03T14:16:36.139Z,71.18
2022-12-03T14:19:03.693Z,69.43
2022-12-03T14:21:31.027Z,74.18
2022-12-03T14:23:58.409Z,70.10
2022-12-03T14:26:26.774Z,70.18
2022-12-03T14:28:53.850Z,70.03
2022-12-03T14:31:21.406Z,72.32
2022-12-03T14:33:48.732Z,71.35
2022-12-03T14:36:17.450Z,71.72
2022-12-03T14:38:44.717Z,67.93
2022-12-03T14:41:32.098Z,69.65
2022-12-03T14:44:01.101Z,69.70
2022-12-03T14:46:30.670Z,74.03
2022-12-03T14:48:59.122Z,73.18
2022-12-03T14:51:26.603Z,74.90
2022-12-03T14:53:53.997Z,75.45
2022-12-03T14:56:21.897Z,72.82
2022-12-03T14:58:48.894Z,73.00
2022-12-03T15:01:16.925Z,67.47
2022-12-03T15:03:43.929Z,69.30
2022-12-03T15:06:11.311Z,68.28
2022-12-03T15:08:38.720Z,69.25
2022-12-03T15:11:07.303Z,71.07
2022-12-03T15:13:34.696Z,69.03
2022-12-03T15:16:02.218Z,70.18
2022-12-03T15:18:31.283Z,71.75
2022-12-03T15:20:58.608Z,75.90
2022-12-03T15:23:26.029Z,77.07
2022-12-03T15:25:53.113Z,77.28
2022-12-03T15:28:22.139Z,74.32
2022-12-03T15:30:50.669Z,71.38
2022-12-03T15:33:18.899Z,73.18
2022-12-03T15:35:45.897Z,69.85
2022-12-03T15:38:13.580Z,67.15
2022-12-03T15:40:47.556Z,65.53
2022-12-03T15:43:14.948Z,67.97
2022-12-03T15:45:43.448Z,65.43
2022-12-03T15:48:11.240Z,66.90
2022-12-03T15:50:40.298Z,68.32
2022-12-03T15:53:08.916Z,68.85
2022-12-03T15:55:37.321Z,70.15
2022-12-03T15:58:04.723Z,68.13
2022-12-03T16:00:39.402Z,71.60
2022-12-03T16:03:06.905Z,75.35
2022-12-03T16:05:34.618Z,77.38
2022-12-03T16:08:02.929Z,70.75
2022-12-03T16:10:30.267Z,75.35
2022-12-03T16:12:59.519Z,74.35
2022-12-03T16:15:27.585Z,75.88
2022-12-03T16:17:54.879Z,77.65
2022-12-03T16:20:22.161Z,76.78
2022-12-03T16:22:51.400Z,79.85
2022-12-03T16:25:19.728Z,83.95
2022-12-03T16:27:47.593Z,80.40
2022-12-03T16:30:15.568Z,73.25
2022-12-03T16:32:42.654Z,77.68
2022-12-03T16:35:10.401Z,79.13
2022-12-03T16:37:40.055Z,76.45
2022-12-03T16:40:08.148Z,73.25
2022-12-03T16:42:37.537Z,76.85
2022-12-03T16:45:08.409Z,75.03
2022-12-03T16:47:36.364Z,73.25
2022-12-03T16:50:09.867Z,77.55
2022-12-03T16:52:40.225Z,78.53
2022-12-03T16:55:08.250Z,75.80
2022-12-03T16:57:35.928Z,78.75
2022-12-03T17:00:03.886Z,74.50
2022-12-03T17:02:31.073Z,75.38
2022-12-03T17:04:58.562Z,79.40
2022-12-03T17:07:26.266Z,78.53
2022-12-03T17:09:55.701Z,76.38
2022-12-03T17:12:23.048Z,76.82
2022-12-03T17:14:50.297Z,73.57
2022-12-03T17:17:18.368Z,73.53
2022-12-03T17:19:45.305Z,73.68
2022-12-03T17:22:12.192Z,64.80
2022-12-03T17:24:39.173Z,69.85
2022-12-03T17:27:08.129Z,67.53
2022-12-03T17:29:35.072Z,37.35
2022-12-03T17:32:02.150Z,69.72
2022-12-03T17:34:29.751Z,70.65
2022-12-03T17:36:56.967Z,68.80
2022-12-03T17:39:24.021Z,65.60
2022-12-03T17:41:51.357Z,65.07
2022-12-03T17:44:21.198Z,70.15
2022-12-03T17:46:50.009Z,70.45
2022-12-03T17:49:17.724Z,72.25
2022-12-03T17:51:44.775Z,72.22
2022-12-03T17:54:13.109Z,70.45
2022-12-03T17:56:43.829Z,66.68
2022-12-03T17:59:12.145Z,74.05
2022-12-03T18:01:39.793Z,71.70
2022-12-03T18:04:07.727Z,77.88
2022-12-03T18:06:34.765Z,77.70
2022-12-03T18:09:03.087Z,77.07
2022-12-03T18:11:30.818Z,75.70
2022-12-03T18:13:58.768Z,74.68
2022-12-03T18:16:26.280Z,76.60
2022-12-03T18:18:56.691Z,77.30
2022-12-03T18:21:26.905Z,74.07
2022-12-03T18:23:56.429Z,77.20
2022-12-03T18:26:23.440Z,76.80
2022-12-03T18:28:56.770Z,76.43
2022-12-03T18:33:52.047Z,80.97
2022-12-03T18:36:22.996Z,74.93
2022-12-03T18:38:55.767Z,74.65
2022-12-03T18:41:24.406Z,74.30
2022-12-03T18:43:53.745Z,76.50
2022-12-03T18:49:10.609Z,75.85
2022-12-03T18:51:38.364Z,73.60
2022-12-03T18:54:12.720Z,74.75
2022-12-03T18:56:41.427Z,72.80
2022-12-03T18:59:15.065Z,73.03
2022-12-03T19:01:43.357Z,74.18
2022-12-03T19:04:11.540Z,69.07
2022-12-03T19:06:41.082Z,71.75
2022-12-03T19:09:09.693Z,69.38
2022-12-03T19:11:37.072Z,70.90
2022-12-03T19:14:04.488Z,75.68
2022-12-03T19:16:33.296Z,75.07
2022-12-03T19:19:02.482Z,75.15
2022-12-03T19:21:33.687Z,74.80
2022-12-03T19:24:23.800Z,73.93
2022-12-03T19:26:55.745Z,74.10
2022-12-03T19:29:24.087Z,72.55
2022-12-03T19:31:52.187Z,77.50
2022-12-03T19:34:20.415Z,75.47
2022-12-03T19:36:49.028Z,72.95
2022-12-03T19:39:16.403Z,77.10
2022-12-03T19:41:47.723Z,71.10
2022-12-03T19:44:17.617Z,72.40
2022-12-03T19:46:45.785Z,76.03
2022-12-03T19:49:21.532Z,73.47
2022-12-03T19:51:49.287Z,72.85
2022-12-03T19:54:17.966Z,76.38
2022-12-03T19:56:45.406Z,78.10
2022-12-03T19:59:14.592Z,76.32
2022-12-03T20:01:43.727Z,74.15
2022-12-03T20:04:13.367Z,79.93
2022-12-03T20:06:41.077Z,80.18
2022-12-03T20:09:14.078Z,77.82
2022-12-03T20:11:44.809Z,74.05
2022-12-03T20:14:15.645Z,80.00
2022-12-03T20:16:48.022Z,76.68
2022-12-03T20:19:18.278Z,79.72
2022-12-03T20:21:47.264Z,79.55
2022-12-03T20:24:17.569Z,82.93
2022-12-03T20:26:45.260Z,84.65
2022-12-03T20:29:13.256Z,88.22
2022-12-03T20:31:41.176Z,87.50
2022-12-03T20:34:10.672Z,84.20
2022-12-03T20:36:38.620Z,78.53
2022-12-03T20:39:08.017Z,77.30
2022-12-03T20:41:37.156Z,76.35
2022-12-03T20:44:06.879Z,73.78
2022-12-03T20:46:34.752Z,75.80
2022-12-03T20:49:05.664Z,75.03
2022-12-03T20:51:34.308Z,79.07
2022-12-03T20:54:02.348Z,76.18
2022-12-03T20:56:32.695Z,78.57
2022-12-03T20:59:13.685Z,76.45
2022-12-03T21:01:41.851Z,76.93
2022-12-03T21:04:10.371Z,76.28
2022-12-03T21:06:38.230Z,76.65
2022-12-03T21:09:09.330Z,77.07
2022-12-03T21:11:39.551Z,71.03
2022-12-03T21:14:07.496Z,72.47
2022-12-03T21:17:10.339Z,74.60
2022-12-03T21:19:29.497Z,71.63
2022-12-03T21:21:57.056Z,68.60
2022-12-03T21:24:24.464Z,74.28
2022-12-03T21:26:51.854Z,70.70
2022-12-03T21:29:19.348Z,71.80
2022-12-03T21:31:47.278Z,70.00
2022-12-03T21:34:14.903Z,60.03
2022-12-03T21:36:42.283Z,68.55
2022-12-03T21:39:10.379Z,64.65
2022-12-03T21:41:37.579Z,66.60
2022-12-03T21:44:05.217Z,65.30
2022-12-03T21:47:11.972Z,65.70
2022-12-03T21:49:33.111Z,69.78
2022-12-03T21:52:00.181Z,66.60
2022-12-03T21:54:28.556Z,69.22
2022-12-03T21:56:55.940Z,66.88
2022-12-03T21:59:23.116Z,65.70
2022-12-03T22:01:50.542Z,68.45
2022-12-03T22:04:18.194Z,65.78
2022-12-03T22:06:45.831Z,67.70
2022-12-03T22:09:13.897Z,67.07
2022-12-03T22:11:41.225Z,68.45
2022-12-03T22:14:10.069Z,70.30
2022-12-03T22:16:37.296Z,69.53
2022-12-03T22:19:04.831Z,68.50
2022-12-03T22:21:35.896Z,68.03
2022-12-03T22:24:03.428Z,68.88
2022-12-03T22:26:30.730Z,70.70
2022-12-03T22:28:58.104Z,70.82
2022-12-03T22:31:26.162Z,67.93
2022-12-03T22:33:53.583Z,69.05
2022-12-03T22:36:22.656Z,68.53
2022-12-03T22:38:51.328Z,70.47
2022-12-03T22:41:20.374Z,69.85
2022-12-03T22:43:49.083Z,66.70
2022-12-03T22:46:17.634Z,71.53
2022-12-03T22:48:46.864Z,73.35
2022-12-03T22:51:23.674Z,72.35
2022-12-03T22:53:55.651Z,69.45
2022-12-03T22:56:31.704Z,71.60
2022-12-03T22:58:59.425Z,70.88
2022-12-03T23:01:30.188Z,72.53
2022-12-03T23:03:57.739Z,69.90
2022-12-03T23:06:25.424Z,72.47
2022-12-03T23:08:53.203Z,72.60
2022-12-03T23:11:23.001Z,73.07
2022-12-03T23:13:50.756Z,68.30
2022-12-03T23:16:22.537Z,74.45
2022-12-03T23:18:52.973Z,71.55
2022-12-03T23:21:29.004Z,67.55
2022-12-03T23:24:00.455Z,74.18
2022-12-03T23:26:27.773Z,70.95
2022-12-03T23:28:55.295Z,65.15
2022-12-03T23:31:28.290Z,70.18
2022-12-03T23:33:57.358Z,62.55
2022-12-03T23:36:26.389Z,64.38
2022-12-03T23:38:54.256Z,70.53
2022-12-03T23:41:23.952Z,72.97
2022-12-03T23:43:51.950Z,70.55
2022-12-03T23:46:23.950Z,69.75
2022-12-03T23:48:52.137Z,67.60
2022-12-03T23:51:22.804Z,63.50
2022-12-03T23:53:50.588Z,69.03
2022-12-03T23:56:22.103Z,72.20
2022-12-03T23:58:49.669Z,68.93
